createdAt,value
2022-11-13T00:03:51.166Z,0.7
2022-11-13T00:05:41.050Z,0.8
2022-11-13T00:10:41.635Z,0.7
2022-11-13T00:15:42.232Z,0.7
2022-11-13T00:20:42.964Z,0.8
2022-11-13T00:25:43.535Z,0.7
2022-11-13T00:30:44.127Z,0.9
2022-11-13T00:35:44.864Z,0.7
2022-11-13T00:40:45.512Z,0.7
2022-11-13T00:45:46.058Z,0.8
2022-11-13T00:50:46.874Z,0.8
2022-11-13T00:55:47.422Z,0.9
2022-11-13T01:00:48.041Z,0.8
2022-11-13T01:05:48.998Z,0.7
2022-11-13T01:10:53.362Z,0.8
2022-11-13T01:15:50.172Z,0.9
2022-11-13T01:20:50.954Z,1.1
2022-11-13T01:25:51.567Z,0.7
2022-11-13T01:30:52.164Z,0.8
2022-11-13T01:35:53.005Z,1.0
2022-11-13T01:40:53.584Z,1.0
2022-11-13T01:45:54.164Z,1.0
2022-11-13T01:50:54.995Z,0.9
2022-11-13T01:55:55.542Z,0.9
2022-11-13T02:00:56.166Z,0.9
2022-11-13T02:05:57.087Z,0.8
2022-11-13T02:10:57.516Z,0.9
2022-11-13T02:15:58.237Z,0.9
2022-11-13T02:20:58.925Z,1.1
2022-11-13T02:25:59.644Z,0.9
2022-11-13T02:31:00.315Z,1.0
2022-11-13T02:36:00.972Z,1.0
2022-11-13T02:41:01.617Z,1.2
2022-11-13T02:46:02.316Z,0.9
2022-11-13T02:51:03.044Z,0.9
2022-11-13T02:56:03.691Z,1.1
2022-11-13T03:01:04.371Z,0.9
2022-11-13T03:06:05.054Z,1.2
2022-11-13T03:11:05.708Z,0.9
2022-11-13T03:16:06.414Z,1.0
2022-11-13T03:21:07.135Z,1.0
2022-11-13T03:26:07.783Z,0.9
2022-11-13T03:31:08.506Z,1.0
2022-11-13T03:36:09.097Z,0.9
2022-11-13T03:41:09.788Z,1.2
2022-11-13T03:46:10.504Z,1.1
2022-11-13T03:51:11.226Z,1.0
2022-11-13T03:56:11.863Z,0.9
2022-11-13T04:01:12.534Z,0.9
2022-11-13T04:06:13.445Z,1.1
2022-11-13T04:11:13.754Z,1.0
2022-11-13T04:16:14.474Z,1.3
2022-11-13T04:21:15.173Z,1.2
2022-11-13T04:26:15.790Z,1.0
2022-11-13T04:31:16.468Z,1.0
2022-11-13T04:36:17.123Z,1.0
2022-11-13T04:41:17.814Z,0.9
2022-11-13T04:46:18.436Z,1.1
2022-11-13T04:51:19.124Z,0.9
2022-11-13T04:56:19.673Z,0.9
2022-11-13T05:01:20.508Z,1.1
2022-11-13T05:06:21.079Z,1.1
2022-11-13T05:11:21.762Z,1.2
2022-11-13T05:16:22.428Z,0.9
2022-11-13T05:21:23.115Z,1.1
2022-11-13T05:26:23.762Z,1.0
2022-11-13T05:31:24.433Z,1.0
2022-11-13T05:36:25.113Z,1.2
2022-11-13T05:41:25.707Z,1.1
2022-11-13T05:46:26.402Z,1.1
2022-11-13T05:51:27.061Z,1.2
2022-11-13T05:56:27.682Z,1.3
2022-11-13T05:57:50.501Z,1.3
2022-11-13T06:01:28.474Z,1.3
2022-11-13T06:06:29.481Z,1.5
2022-11-13T06:11:29.675Z,1.5
2022-11-13T06:16:30.419Z,1.4
2022-11-13T06:21:31.098Z,1.5
2022-11-13T06:26:31.785Z,1.3
2022-11-13T06:31:32.447Z,1.3
2022-11-13T06:36:33.093Z,1.4
2022-11-13T06:41:33.790Z,1.5
2022-11-13T06:46:34.545Z,1.5
2022-11-13T06:51:35.084Z,1.5
2022-11-13T06:56:35.880Z,1.8
2022-11-13T07:01:36.642Z,1.8
2022-11-13T07:06:40.365Z,1.9
2022-11-13T07:11:37.928Z,1.8
2022-11-13T07:17:04.377Z,1.7
2022-11-13T07:21:39.203Z,1.6
2022-11-13T07:26:39.841Z,1.9
2022-11-13T07:31:40.504Z,1.7
2022-11-13T07:36:41.169Z,2.0
2022-11-13T07:41:41.853Z,2.0
2022-11-13T07:46:42.714Z,1.7
2022-11-13T07:51:43.255Z,1.8
2022-11-13T07:56:43.885Z,2.0
2022-11-13T08:01:44.554Z,1.8
2022-11-13T08:06:45.497Z,1.9
2022-11-13T08:11:45.812Z,1.9
2022-11-13T08:16:46.536Z,1.9
2022-11-13T08:21:47.214Z,1.8
2022-11-13T08:26:47.845Z,2.2
2022-11-13T08:31:48.543Z,2.0
2022-11-13T08:36:49.204Z,2.3
2022-11-13T08:41:49.948Z,1.8
2022-11-13T08:46:50.462Z,2.1
2022-11-13T08:51:51.098Z,2.3
2022-11-13T08:56:56.146Z,1.7
2022-11-13T09:01:52.362Z,2.2
2022-11-13T09:06:53.231Z,1.9
2022-11-13T09:11:53.764Z,2.3
2022-11-13T09:16:54.365Z,2.0
2022-11-13T09:21:54.985Z,2.1
2022-11-13T09:26:55.635Z,1.9
2022-11-13T09:31:56.148Z,1.9
2022-11-13T09:36:56.952Z,2.1
2022-11-13T09:41:57.544Z,1.8
2022-11-13T09:46:58.121Z,1.8
2022-11-13T09:52:01.643Z,1.7
2022-11-13T09:56:59.485Z,1.7
2022-11-13T10:02:00.065Z,2.0
2022-11-13T10:07:00.828Z,2.0
2022-11-13T10:12:01.403Z,2.0
2022-11-13T10:17:02.170Z,2.1
2022-11-13T10:22:26.611Z,2.0
2022-11-13T10:27:03.336Z,2.4
2022-11-13T10:32:03.883Z,2.2
2022-11-13T10:37:04.706Z,2.2
2022-11-13T10:42:05.205Z,1.9
2022-11-13T10:47:05.815Z,2.1
2022-11-13T10:52:11.295Z,1.7
2022-11-13T10:57:07.161Z,2.2
2022-11-13T11:02:07.929Z,1.8
2022-11-13T11:07:21.426Z,1.8
2022-11-13T11:12:09.228Z,1.9
2022-11-13T11:17:09.850Z,1.8
2022-11-13T11:22:10.528Z,1.8
2022-11-13T11:27:11.082Z,2.0
2022-11-13T11:32:11.864Z,2.1
2022-11-13T11:37:12.530Z,2.0
2022-11-13T11:42:13.111Z,1.8
2022-11-13T11:47:13.900Z,1.8
2022-11-13T11:52:14.598Z,1.7
2022-11-13T11:57:15.163Z,2.0
2022-11-13T12:02:15.853Z,1.8
2022-11-13T12:07:16.835Z,1.9
2022-11-13T12:12:17.137Z,1.7
2022-11-13T12:17:17.943Z,1.6
2022-11-13T12:22:18.607Z,2.0
2022-11-13T12:27:19.185Z,1.8
2022-11-13T12:32:19.918Z,1.8
2022-11-13T12:37:20.741Z,1.9
2022-11-13T12:42:21.297Z,1.6
2022-11-13T12:47:21.857Z,2.0
2022-11-13T12:52:22.710Z,1.5
2022-11-13T12:57:27.238Z,1.8
2022-11-13T13:02:23.919Z,1.6
2022-11-13T13:07:24.889Z,1.9
2022-11-13T13:12:25.391Z,1.4
2022-11-13T13:17:25.971Z,1.6
2022-11-13T13:22:26.772Z,1.9
2022-11-13T13:27:27.338Z,1.4
2022-11-13T13:32:27.911Z,1.6
2022-11-13T13:37:28.844Z,1.6
2022-11-13T13:42:29.506Z,1.7
2022-11-13T13:47:29.998Z,1.6
2022-11-13T13:52:30.808Z,1.6
2022-11-13T13:57:31.437Z,1.6
2022-11-13T14:02:32.066Z,1.5
2022-11-13T14:07:32.938Z,1.6
2022-11-13T14:12:33.521Z,1.8
2022-11-13T14:17:34.646Z,1.8
2022-11-13T14:22:34.917Z,1.5
2022-11-13T14:27:35.681Z,1.6
2022-11-13T14:32:36.248Z,1.5
2022-11-13T14:37:37.047Z,1.7
2022-11-13T14:42:37.763Z,1.6
2022-11-13T14:47:38.395Z,1.6
2022-11-13T14:52:39.120Z,1.5
2022-11-13T14:57:39.929Z,1.7
2022-11-13T15:02:40.626Z,1.7
2022-11-13T15:07:41.628Z,1.8
2022-11-13T15:12:41.972Z,2.4
2022-11-13T15:17:42.809Z,1.5
2022-11-13T15:22:43.427Z,1.8
2022-11-13T15:27:44.000Z,1.8
2022-11-13T15:32:47.809Z,1.7
2022-11-13T15:37:45.515Z,1.8
2022-11-13T15:42:47.664Z,1.6
2022-11-13T15:47:46.843Z,1.6
2022-11-13T15:52:47.831Z,1.8
2022-11-13T15:57:48.399Z,1.8
2022-11-13T16:02:48.919Z,1.8
2022-11-13T16:07:49.955Z,2.1
2022-11-13T16:12:50.374Z,1.8
2022-11-13T16:17:51.036Z,1.8
2022-11-13T16:22:51.765Z,1.9
2022-11-13T16:27:52.588Z,1.6
2022-11-13T16:32:53.111Z,2.0
2022-11-13T16:37:53.910Z,1.9
2022-11-13T16:42:54.550Z,1.8
2022-11-13T16:47:55.212Z,2.0
2022-11-13T16:52:55.999Z,2.0
2022-11-13T16:57:56.533Z,1.9
2022-11-13T17:02:57.149Z,2.4
2022-11-13T17:07:57.989Z,2.4
2022-11-13T17:12:58.720Z,2.4
2022-11-13T17:17:59.289Z,2.2
2022-11-13T17:23:00.037Z,2.3
2022-11-13T17:28:00.729Z,2.2
2022-11-13T17:33:01.190Z,2.4
2022-11-13T17:38:02.068Z,2.5
2022-11-13T17:43:02.593Z,2.9
2022-11-13T17:48:03.458Z,2.3
2022-11-13T17:53:04.132Z,2.3
2022-11-13T17:58:04.782Z,2.4
2022-11-13T18:03:05.271Z,2.5
2022-11-13T18:08:06.257Z,2.5
2022-11-13T18:13:06.714Z,2.2
2022-11-13T18:18:07.406Z,2.4
2022-11-13T18:23:07.928Z,2.2
2022-11-13T18:28:08.681Z,2.3
2022-11-13T18:33:09.341Z,2.3
2022-11-13T18:38:09.934Z,2.1
2022-11-13T18:43:10.711Z,2.2
2022-11-13T18:48:11.230Z,2.4
2022-11-13T18:53:12.028Z,2.0
2022-11-13T18:58:12.673Z,2.1
2022-11-13T19:03:13.347Z,2.0
2022-11-13T19:08:14.191Z,2.2
2022-11-13T19:13:14.658Z,2.2
2022-11-13T19:18:15.244Z,2.2
2022-11-13T19:23:16.102Z,2.0
2022-11-13T19:28:16.585Z,2.3
2022-11-13T19:33:17.187Z,2.0
2022-11-13T19:38:17.874Z,2.4
2022-11-13T19:43:18.476Z,2.1
2022-11-13T19:48:19.149Z,2.1
2022-11-13T19:53:19.776Z,2.1
2022-11-13T19:58:20.423Z,2.3
2022-11-13T20:03:20.784Z,2.0
2022-11-13T20:08:25.371Z,1.9
2022-11-13T20:13:22.204Z,2.3
2022-11-13T20:18:22.766Z,2.1
2022-11-13T20:23:23.374Z,2.3
2022-11-13T20:28:24.029Z,2.0
2022-11-13T20:33:24.795Z,1.8
2022-11-13T20:38:25.497Z,1.8
2022-11-13T20:43:25.861Z,2.1
2022-11-13T20:48:26.929Z,1.9
2022-11-13T20:53:27.368Z,1.9
2022-11-13T20:58:29.402Z,2.0
2022-11-13T21:03:28.556Z,2.2
2022-11-13T21:08:29.620Z,2.2
2022-11-13T21:13:29.627Z,2.2
2022-11-13T21:18:30.691Z,2.0
2022-11-13T21:23:30.946Z,1.9
2022-11-13T21:28:33.615Z,2.1
2022-11-13T21:33:32.202Z,2.2
2022-11-13T21:38:32.767Z,2.1
2022-11-13T21:43:33.267Z,2.2
2022-11-13T21:48:33.845Z,2.1
2022-11-13T21:53:34.629Z,2.0
2022-11-13T21:58:35.127Z,2.0
2022-11-13T22:03:35.665Z,1.9
2022-11-13T22:08:36.705Z,2.0
2022-11-13T22:13:36.881Z,2.3
2022-11-13T22:18:37.472Z,2.5
2022-11-13T22:23:38.116Z,1.9
2022-11-13T22:28:38.867Z,2.4
2022-11-13T22:33:43.663Z,2.4
2022-11-13T22:38:39.961Z,2.3
2022-11-13T22:43:40.493Z,2.0
2022-11-13T22:48:41.049Z,2.1
2022-11-13T22:53:41.772Z,2.0
2022-11-13T22:58:42.251Z,2.4
2022-11-13T23:03:42.943Z,1.9
2022-11-13T23:08:44.018Z,2.1
2022-11-13T23:13:44.153Z,2.1
2022-11-13T23:18:44.865Z,1.9
2022-11-13T23:23:45.594Z,2.3
2022-11-13T23:28:46.110Z,2.3
2022-11-13T23:33:46.692Z,2.3
2022-11-13T23:38:47.564Z,3.1
2022-11-13T23:44:07.684Z,2.4
2022-11-13T23:48:48.729Z,2.8
2022-11-13T23:53:49.481Z,2.7
2022-11-13T23:58:50.028Z,2.8
